createdAt,value
2022-08-08T00:02:31.122Z,98333.38
2022-08-08T00:05:43.306Z,98337.78
2022-08-08T00:08:52.375Z,98333.16
2022-08-08T00:12:08.151Z,98338.69
2022-08-08T00:15:17.611Z,98336.94
2022-08-08T00:18:36.273Z,98350.34
2022-08-08T00:21:43.812Z,98337.06
2022-08-08T00:24:52.071Z,98345.84
2022-08-08T00:27:57.803Z,98342.47
2022-08-08T00:32:20.909Z,98346.25
2022-08-08T00:35:04.251Z,98336.47
2022-08-08T00:38:51.501Z,98331.81
2022-08-08T00:42:09.213Z,98321.94
2022-08-08T00:45:48.058Z,98323.94
2022-08-08T00:49:22.123Z,98314.34
2022-08-08T00:52:43.264Z,98315.97
2022-08-08T00:56:09.210Z,98320.38
2022-08-08T00:59:54.958Z,98325.69
2022-08-08T01:04:00.837Z,98318.75
2022-08-08T01:07:34.572Z,98323.31
2022-08-08T01:11:21.212Z,98317.63
2022-08-08T01:14:54.269Z,98313.59
2022-08-08T01:18:53.462Z,98319.63
2022-08-08T01:22:34.795Z,98317.00
2022-08-08T01:25:42.983Z,98322.47
2022-08-08T01:29:16.631Z,98323.63
2022-08-08T01:33:00.734Z,98333.06
2022-08-08T01:36:24.392Z,98322.00
2022-08-08T01:39:34.650Z,98320.72
2022-08-08T01:42:42.585Z,98321.44
2022-08-08T01:45:56.662Z,98317.06
2022-08-08T01:49:10.963Z,98306.38
2022-08-08T01:53:04.100Z,98313.44
2022-08-08T01:56:30.523Z,98306.50
2022-08-08T02:00:02.014Z,98307.22
2022-08-08T02:03:57.897Z,98301.38
2022-08-08T02:07:06.337Z,98300.00
2022-08-08T02:10:45.927Z,98296.59
2022-08-08T02:13:58.081Z,98308.03
2022-08-08T02:17:18.050Z,98309.84
2022-08-08T02:21:01.822Z,98306.06
2022-08-08T02:24:11.783Z,98310.91
2022-08-08T02:27:23.623Z,98316.22
2022-08-08T02:30:28.564Z,98321.72
2022-08-08T02:34:09.271Z,98316.06
2022-08-08T02:38:05.684Z,98330.84
2022-08-08T02:41:58.746Z,98320.44
2022-08-08T02:45:51.487Z,98333.22
2022-08-08T02:49:35.866Z,98335.69
2022-08-08T02:52:53.921Z,98332.59
2022-08-08T02:56:23.857Z,98329.13
2022-08-08T02:59:57.080Z,98327.84
2022-08-08T03:05:00.908Z,98327.19
2022-08-08T03:07:41.653Z,98332.13
2022-08-08T03:11:03.063Z,98329.13
2022-08-08T03:15:56.483Z,98334.78
2022-08-08T03:18:09.459Z,98335.34
2022-08-08T03:21:16.472Z,98341.28
2022-08-08T03:24:20.707Z,98329.66
2022-08-08T03:27:42.058Z,98339.97
2022-08-08T03:30:49.007Z,98343.03
2022-08-08T03:33:56.548Z,98355.25
2022-08-08T03:37:20.036Z,98351.28
2022-08-08T03:40:29.369Z,98351.47
2022-08-08T03:43:38.732Z,98354.22
2022-08-08T03:46:50.716Z,98343.38
2022-08-08T03:50:02.249Z,98352.13
2022-08-08T03:53:15.538Z,98345.25
2022-08-08T03:56:31.521Z,98343.81
2022-08-08T04:00:02.543Z,98346.25
2022-08-08T04:03:14.349Z,98347.81
2022-08-08T04:06:22.176Z,98353.28
2022-08-08T04:09:25.413Z,98356.88
2022-08-08T04:12:28.579Z,98358.78
2022-08-08T04:15:38.736Z,98362.63
2022-08-08T04:18:44.868Z,98363.63
2022-08-08T04:21:54.889Z,98361.13
2022-08-08T04:24:59.062Z,98365.41
2022-08-08T04:28:36.640Z,98363.31
2022-08-08T04:31:56.603Z,98361.72
2022-08-08T04:34:55.575Z,98364.34
2022-08-08T04:38:33.563Z,98353.84
2022-08-08T04:41:37.422Z,98368.34
2022-08-08T04:44:40.752Z,98365.34
2022-08-08T04:47:47.239Z,98364.06
2022-08-08T04:50:56.105Z,98367.38
2022-08-08T04:58:22.645Z,98363.19
2022-08-08T05:01:25.356Z,98364.72
2022-08-08T05:04:38.144Z,98359.53
2022-08-08T05:07:42.915Z,98366.22
2022-08-08T05:10:48.183Z,98372.84
2022-08-08T05:13:58.398Z,98368.66
2022-08-08T05:17:08.738Z,98376.19
2022-08-08T05:20:40.630Z,98370.03
2022-08-08T05:24:04.134Z,98377.44
2022-08-08T05:27:41.577Z,98375.72
2022-08-08T05:30:49.160Z,98374.09
2022-08-08T05:33:57.494Z,98375.22
2022-08-08T05:37:00.298Z,98380.13
2022-08-08T05:44:51.526Z,98391.69
2022-08-08T05:48:00.747Z,98390.97
2022-08-08T05:51:15.832Z,98386.66
2022-08-08T05:54:51.034Z,98391.91
2022-08-08T05:58:05.119Z,98388.03
2022-08-08T06:01:14.692Z,98394.13
2022-08-08T06:04:37.297Z,98398.81
2022-08-08T06:07:47.203Z,98398.88
2022-08-08T06:10:55.113Z,98388.94
2022-08-08T06:13:58.787Z,98403.28
2022-08-08T06:17:04.022Z,98402.56
2022-08-08T06:20:49.593Z,98397.69
2022-08-08T06:24:03.672Z,98400.19
2022-08-08T06:27:11.191Z,98399.38
2022-08-08T06:30:48.981Z,98401.22
2022-08-08T06:34:25.529Z,98409.91
2022-08-08T06:37:29.167Z,98411.75
2022-08-08T06:40:48.592Z,98412.16
2022-08-08T06:43:58.556Z,98416.28
2022-08-08T06:47:09.174Z,98412.56
2022-08-08T06:50:17.670Z,98404.16
2022-08-08T06:53:50.816Z,98403.91
2022-08-08T06:57:07.063Z,98406.56
2022-08-08T07:00:12.809Z,98406.78
2022-08-08T07:04:35.034Z,98411.75
2022-08-08T07:06:57.274Z,98413.00
2022-08-08T07:10:08.084Z,98416.84
2022-08-08T07:13:25.110Z,98424.31
2022-08-08T07:16:51.027Z,98419.13
2022-08-08T07:20:04.814Z,98419.31
2022-08-08T07:23:22.451Z,98419.94
2022-08-08T07:26:35.704Z,98428.09
2022-08-08T07:29:59.773Z,98426.56
2022-08-08T07:33:06.556Z,98425.06
2022-08-08T07:36:13.461Z,98428.25
2022-08-08T07:39:29.763Z,98430.00
2022-08-08T07:42:49.840Z,98426.78
2022-08-08T07:46:18.047Z,98432.03
2022-08-08T07:49:16.198Z,98431.22
2022-08-08T07:52:23.204Z,98435.31
2022-08-08T07:55:36.554Z,98434.28
2022-08-08T07:58:49.983Z,98440.03
2022-08-08T08:02:35.825Z,98443.72
2022-08-08T08:05:33.496Z,98439.91
2022-08-08T08:08:52.181Z,98445.59
2022-08-08T08:12:00.109Z,98449.53
2022-08-08T08:15:09.576Z,98448.44
2022-08-08T08:18:17.485Z,98443.41
2022-08-08T08:21:52.459Z,98453.75
2022-08-08T08:25:42.918Z,98448.31
2022-08-08T08:28:46.560Z,98450.78
2022-08-08T08:31:54.058Z,98447.72
2022-08-08T08:35:03.484Z,98440.09
2022-08-08T08:38:17.876Z,98451.28
2022-08-08T08:41:30.942Z,98448.88
2022-08-08T08:44:33.706Z,98449.50
2022-08-08T08:47:44.712Z,98445.69
2022-08-08T08:50:53.366Z,98440.72
2022-08-08T08:54:00.925Z,98441.06
2022-08-08T08:57:15.919Z,98445.09
2022-08-08T09:00:22.513Z,98448.41
2022-08-08T09:03:45.495Z,98457.66
2022-08-08T09:06:51.566Z,98453.88
2022-08-08T09:09:58.195Z,98452.94
2022-08-08T09:13:14.707Z,98455.06
2022-08-08T09:16:19.411Z,98467.50
2022-08-08T09:21:56.919Z,98456.03
2022-08-08T09:22:44.997Z,98472.41
2022-08-08T09:26:00.842Z,98464.91
2022-08-08T09:29:09.670Z,98471.63
2022-08-08T09:32:19.470Z,98461.59
2022-08-08T09:35:32.197Z,98456.03
2022-08-08T09:38:54.358Z,98458.81
2022-08-08T09:42:20.301Z,98457.63
2022-08-08T09:45:55.407Z,98445.13
2022-08-08T09:48:55.313Z,98455.06
2022-08-08T09:52:07.399Z,98446.88
2022-08-08T09:55:12.862Z,98446.66
2022-08-08T09:58:27.600Z,98441.28
2022-08-08T10:01:59.139Z,98438.19
2022-08-08T10:05:31.378Z,98445.13
2022-08-08T10:08:44.102Z,98444.91
2022-08-08T10:12:26.718Z,98446.63
2022-08-08T10:15:18.237Z,98441.91
2022-08-08T10:18:28.573Z,98433.72
2022-08-08T10:21:50.218Z,98434.06
2022-08-08T10:25:00.029Z,98436.19
2022-08-08T10:28:04.355Z,98441.47
2022-08-08T10:31:46.913Z,98430.41
2022-08-08T10:34:57.104Z,98429.50
2022-08-08T10:38:05.775Z,98443.66
2022-08-08T10:41:22.388Z,98438.22
2022-08-08T10:44:36.307Z,98438.13
2022-08-08T10:47:42.957Z,98435.19
2022-08-08T10:50:45.525Z,98429.34
2022-08-08T10:53:57.791Z,98435.03
2022-08-08T10:57:05.718Z,98427.34
2022-08-08T11:00:13.000Z,98428.81
2022-08-08T11:03:18.328Z,98422.91
2022-08-08T11:06:20.264Z,98427.44
2022-08-08T11:09:22.951Z,98423.34
2022-08-08T11:12:24.996Z,98420.66
2022-08-08T11:15:31.259Z,98421.28
2022-08-08T11:18:37.369Z,98424.66
2022-08-08T11:21:55.279Z,98424.28
2022-08-08T11:25:02.771Z,98427.56
2022-08-08T11:28:30.503Z,98431.19
2022-08-08T11:31:48.614Z,98437.22
2022-08-08T11:35:10.572Z,98434.41
2022-08-08T11:38:39.275Z,98431.06
2022-08-08T11:41:42.233Z,98430.97
2022-08-08T11:44:45.933Z,98433.53
2022-08-08T11:48:04.644Z,98436.28
2022-08-08T11:51:39.200Z,98432.66
2022-08-08T11:54:38.118Z,98432.00
2022-08-08T11:57:46.750Z,98433.47
2022-08-08T12:00:56.482Z,98438.13
2022-08-08T12:03:59.754Z,98427.56
2022-08-08T12:07:07.913Z,98429.88
2022-08-08T12:10:23.536Z,98425.59
2022-08-08T12:13:37.780Z,98432.06
2022-08-08T12:16:53.411Z,98423.00
2022-08-08T12:19:58.303Z,98435.28
2022-08-08T12:23:00.382Z,98438.38
2022-08-08T12:26:10.006Z,98437.25
2022-08-08T12:29:25.886Z,98433.22
2022-08-08T12:32:49.711Z,98438.88
2022-08-08T12:35:53.444Z,98436.09
2022-08-08T12:38:55.938Z,98434.47
2022-08-08T12:42:01.800Z,98440.28
2022-08-08T12:45:53.615Z,98437.06
2022-08-08T12:48:37.093Z,98448.84
2022-08-08T12:51:59.032Z,98445.50
2022-08-08T12:55:09.446Z,98447.47
2022-08-08T12:58:19.426Z,98453.06
2022-08-08T13:01:37.588Z,98453.53
2022-08-08T13:04:51.198Z,98449.94
2022-08-08T13:08:03.044Z,98446.91
2022-08-08T13:11:20.630Z,98448.38
2022-08-08T13:14:38.010Z,98448.47
2022-08-08T13:17:54.046Z,98441.13
2022-08-08T13:21:04.584Z,98444.53
2022-08-08T13:24:09.172Z,98442.81
2022-08-08T13:27:30.023Z,98441.06
2022-08-08T13:30:38.413Z,98440.50
2022-08-08T13:33:42.118Z,98434.19
2022-08-08T13:36:45.538Z,98438.41
2022-08-08T13:39:53.493Z,98438.28
2022-08-08T13:43:01.476Z,98440.16
2022-08-08T13:46:26.384Z,98437.75
2022-08-08T13:50:38.840Z,98439.72
2022-08-08T13:52:55.115Z,98441.53
2022-08-08T13:56:02.262Z,98437.97
2022-08-08T13:59:04.995Z,98439.81
2022-08-08T14:02:35.078Z,98439.13
2022-08-08T14:05:57.703Z,98442.88
2022-08-08T14:09:25.609Z,98439.94
2022-08-08T14:12:28.029Z,98439.56
2022-08-08T14:15:39.715Z,98440.13
2022-08-08T14:18:56.627Z,98429.13
2022-08-08T14:21:59.383Z,98434.75
2022-08-08T14:25:07.721Z,98431.19
2022-08-08T14:28:10.226Z,98422.78
2022-08-08T14:31:20.249Z,98426.13
2022-08-08T14:34:29.678Z,98425.84
2022-08-08T14:37:43.301Z,98426.13
2022-08-08T14:41:18.635Z,98428.97
2022-08-08T14:44:39.269Z,98431.53
2022-08-08T14:47:52.201Z,98432.09
2022-08-08T14:51:04.644Z,98428.31
2022-08-08T14:54:11.455Z,98435.34
2022-08-08T14:57:16.463Z,98429.22
2022-08-08T15:00:19.150Z,98423.91
2022-08-08T15:03:21.632Z,98436.81
2022-08-08T15:06:27.192Z,98431.16
2022-08-08T15:09:30.637Z,98431.06
2022-08-08T15:12:34.969Z,98428.84
2022-08-08T15:16:02.393Z,98414.28
2022-08-08T15:18:59.277Z,98416.41
2022-08-08T15:22:01.933Z,98418.47
2022-08-08T15:25:08.771Z,98428.31
2022-08-08T15:28:33.625Z,98420.34
2022-08-08T15:32:03.835Z,98424.81
2022-08-08T15:35:01.642Z,98428.66
2022-08-08T15:38:12.817Z,98416.91
2022-08-08T15:41:15.497Z,98418.66
2022-08-08T15:44:19.852Z,98408.06
2022-08-08T15:47:22.793Z,98414.00
2022-08-08T15:50:24.734Z,98417.06
2022-08-08T15:53:40.572Z,98416.47
2022-08-08T15:56:50.455Z,98409.78
2022-08-08T16:00:05.862Z,98406.50
2022-08-08T16:03:23.125Z,98401.44
2022-08-08T16:06:28.491Z,98404.56
2022-08-08T16:13:03.376Z,98408.56
2022-08-08T16:13:21.203Z,98407.13
2022-08-08T16:16:17.831Z,98410.91
2022-08-08T16:19:24.220Z,98401.84
2022-08-08T16:22:30.327Z,98408.34
2022-08-08T16:25:46.095Z,98398.75
2022-08-08T16:28:55.521Z,98407.00
2022-08-08T16:31:57.613Z,98409.91
2022-08-08T16:35:03.359Z,98414.38
2022-08-08T16:38:08.687Z,98417.94
2022-08-08T16:41:20.549Z,98411.91
2022-08-08T16:44:28.080Z,98426.03
2022-08-08T16:47:41.783Z,98422.69
2022-08-08T16:50:44.612Z,98416.81
2022-08-08T16:55:19.333Z,98436.38
2022-08-08T16:57:23.681Z,98430.75
2022-08-08T17:00:31.340Z,98434.56
2022-08-08T17:03:47.501Z,98428.09
2022-08-08T17:06:55.605Z,98434.00
2022-08-08T17:09:57.991Z,98440.81
2022-08-08T17:13:00.318Z,98451.16
2022-08-08T17:16:03.929Z,98447.97
2022-08-08T17:19:06.546Z,98452.19
2022-08-08T17:22:10.805Z,98456.72
2022-08-08T17:25:17.851Z,98467.88
2022-08-08T17:28:34.456Z,98469.06
2022-08-08T17:31:46.359Z,98469.94
2022-08-08T17:35:53.912Z,98475.22
2022-08-08T17:38:15.305Z,98473.47
2022-08-08T17:41:17.391Z,98479.78
2022-08-08T17:44:32.516Z,98479.63
2022-08-08T17:47:40.480Z,98479.16
2022-08-08T17:50:44.010Z,98473.16
2022-08-08T17:53:46.601Z,98490.47
2022-08-08T17:57:01.223Z,98481.44
2022-08-08T18:00:13.160Z,98499.13
2022-08-08T18:03:22.904Z,98491.75
2022-08-08T18:06:31.335Z,98492.19
2022-08-08T18:09:37.999Z,98488.47
2022-08-08T18:12:44.459Z,98500.41
2022-08-08T18:15:59.904Z,98490.16
2022-08-08T18:19:07.239Z,98497.34
2022-08-08T18:22:49.773Z,98499.97
2022-08-08T18:25:37.381Z,98512.75
2022-08-08T18:28:54.665Z,98511.50
2022-08-08T18:31:59.223Z,98512.13
2022-08-08T18:35:01.211Z,98521.78
2022-08-08T18:38:03.915Z,98530.81
2022-08-08T18:41:19.723Z,98530.22
2022-08-08T18:44:42.502Z,98525.47
2022-08-08T18:47:58.238Z,98540.91
2022-08-08T18:51:01.297Z,98547.47
2022-08-08T18:54:18.271Z,98536.16
2022-08-08T18:57:24.929Z,98552.16
2022-08-08T19:00:30.876Z,98552.16
2022-08-08T19:04:05.520Z,98546.00
2022-08-08T19:06:55.636Z,98545.19
2022-08-08T19:10:14.109Z,98546.63
2022-08-08T19:13:21.564Z,98558.94
2022-08-08T19:16:28.459Z,98567.34
2022-08-08T19:19:34.281Z,98561.56
2022-08-08T19:22:37.627Z,98568.13
2022-08-08T19:26:20.466Z,98570.56
2022-08-08T19:29:23.122Z,98567.69
2022-08-08T19:32:27.356Z,98567.28
2022-08-08T19:35:45.359Z,98568.25
2022-08-08T19:38:54.213Z,98584.03
2022-08-08T19:41:56.944Z,98567.63
2022-08-08T19:45:05.203Z,98576.19
2022-08-08T19:48:28.618Z,98579.84
2022-08-08T19:51:34.493Z,98583.97
2022-08-08T19:54:43.294Z,98587.13
2022-08-08T19:57:47.447Z,98596.16
2022-08-08T20:00:51.380Z,98584.88
2022-08-08T20:04:00.932Z,98575.16
2022-08-08T20:08:29.032Z,98578.28
2022-08-08T20:10:34.151Z,98578.28
2022-08-08T20:14:31.581Z,98583.88
2022-08-08T20:16:59.675Z,98580.53
2022-08-08T20:20:02.982Z,98579.53
2022-08-08T20:23:12.479Z,98576.31
2022-08-08T20:26:18.404Z,98577.72
2022-08-08T20:29:55.187Z,98570.88
2022-08-08T20:32:52.469Z,98576.09
2022-08-08T20:35:58.788Z,98575.66
2022-08-08T20:39:04.599Z,98576.47
2022-08-08T20:42:09.300Z,98584.31
2022-08-08T20:45:11.447Z,98576.19
2022-08-08T20:48:18.642Z,98581.19
2022-08-08T20:51:32.275Z,98572.78
2022-08-08T20:54:35.810Z,98567.31
2022-08-08T20:57:44.041Z,98567.13
2022-08-08T21:00:50.929Z,98567.78
2022-08-08T21:03:55.372Z,98564.13
2022-08-08T21:07:00.917Z,98563.00
2022-08-08T21:10:12.727Z,98557.88
2022-08-08T21:13:15.260Z,98549.66
2022-08-08T21:16:28.871Z,98553.75
2022-08-08T21:19:44.276Z,98545.16
2022-08-08T21:22:50.073Z,98544.47
2022-08-08T21:25:55.059Z,98538.34
2022-08-08T21:29:01.151Z,98540.38
2022-08-08T21:32:24.827Z,98537.25
2022-08-08T21:36:17.032Z,98538.97
2022-08-08T21:38:52.863Z,98541.63
2022-08-08T21:41:59.305Z,98547.31
2022-08-08T21:45:44.075Z,98543.03
2022-08-08T21:48:40.263Z,98539.28
2022-08-08T21:54:30.893Z,98549.31
2022-08-08T21:55:24.159Z,98544.19
2022-08-08T21:58:37.821Z,98545.66
2022-08-08T22:01:41.047Z,98556.56
2022-08-08T22:04:44.107Z,98555.38
2022-08-08T22:07:49.173Z,98550.69
2022-08-08T22:10:54.016Z,98552.78
2022-08-08T22:13:56.297Z,98554.25
2022-08-08T22:17:01.146Z,98553.44
2022-08-08T22:20:13.103Z,98553.16
2022-08-08T22:23:32.798Z,98553.84
2022-08-08T22:27:01.796Z,98550.56
2022-08-08T22:30:02.704Z,98546.09
2022-08-08T22:33:21.897Z,98549.81
2022-08-08T22:36:34.334Z,98544.72
2022-08-08T22:39:45.607Z,98540.47
2022-08-08T22:42:48.574Z,98538.63
2022-08-08T22:45:52.546Z,98537.47
2022-08-08T22:48:55.041Z,98543.16
2022-08-08T22:51:57.985Z,98537.50
2022-08-08T22:55:05.581Z,98538.16
2022-08-08T22:58:12.271Z,98537.25
2022-08-08T23:01:26.511Z,98546.47
2022-08-08T23:04:36.459Z,98547.53
2022-08-08T23:07:51.464Z,98549.91
2022-08-08T23:11:05.783Z,98550.38
2022-08-08T23:14:08.522Z,98551.84
2022-08-08T23:17:13.601Z,98551.78
2022-08-08T23:20:19.813Z,98549.19
2022-08-08T23:23:22.025Z,98547.78
2022-08-08T23:26:24.993Z,98549.03
2022-08-08T23:29:29.821Z,98547.06
2022-08-08T23:32:33.456Z,98542.06
2022-08-08T23:35:59.005Z,98552.31
2022-08-08T23:38:57.948Z,98542.44
2022-08-08T23:42:05.762Z,98553.28
2022-08-08T23:45:12.476Z,98540.25
2022-08-08T23:49:00.082Z,98550.09
2022-08-08T23:51:41.829Z,98541.53
2022-08-08T23:54:53.389Z,98557.31
2022-08-08T23:58:02.501Z,98545.78
